< < Back
Terminal Aerodrome Forecast


Current Version              Previous Versions:   1  2  3  4  5  6  7  8  9  

Terminal Aerodrome Forecast

139
FTUS42 KGSP 272019 AAA
TAFHKY
TAF AMD
KHKY 272019Z 2720/2818 VRB03KT P6SM BKN040
      TEMPO 2720/2723 VRB10G15KT 3SM TSRA OVC025CB
     FM280100 27004KT P6SM -SHRA VCTS OVC040CB
     FM280500 36004KT P6SM OVC070 PROB30 2805/2809 4SM -TSRA BR
      OVC040CB
     FM280900 00000KT 3SM BR OVC080
     FM281300 31003KT P6SM BKN040=



Latest METAR

355
SAUS70 KWBC 280300 RRT
MTRHKY
METAR KHKY 280253Z AUTO 00000KT 6SM BR BKN005 BKN120 22/22 A3006 RMK AO2
RAE52 CIG 003V011 SLP154 P0006 60016 T02220222 58002


USA.gov is the U.S. government's official web portal to all federal, state and local government web resources and services.